Kimesville, North Carolina
Current Conditions -  °F | °C
As of 1:35 PM on Saturday 25 Oct 2014 (Local Time) from K5W8 Reporting Station
Clear Clear  
Wind Chill: 67°   Ceiling: Unl
Heat Index: 67°   Visibility: 10mi
Dew Point: 38°   Wind: 6mph
Humidity: 35%   Direction: 330°NNW
Pressure: 29.98"   Gusts: NA
Location:  35.8814°N, 79.5689°W
Report Text: K5W8 251735Z AUTO 33005KT 10SM CLR 20/04 A2998 RMK AO2 T01970036
Loading
Personal Weather Stations






























Interactive Weather Map
Tropical Storm Tracking
New forecast layout! Learn more

10-Day Weather Forecast

Advertisements
Track Severe Weather on mobile